sensor_id;sensor_type;location;lat;lon;timestamp;temperature;humidity
8664;DHT22;4369;47.842;13.096;2022-10-03T00:02:10;12.30;99.90
8664;DHT22;4369;47.842;13.096;2022-10-03T00:04:53;12.30;99.90
8664;DHT22;4369;47.842;13.096;2022-10-03T00:07:46;12.30;99.90
8664;DHT22;4369;47.842;13.096;2022-10-03T00:10:24;12.30;99.90
8664;DHT22;4369;47.842;13.096;2022-10-03T00:13:05;12.30;99.90
8664;DHT22;4369;47.842;13.096;2022-10-03T00:15:38;12.30;99.90
8664;DHT22;4369;47.842;13.096;2022-10-03T00:18:21;12.30;99.90
8664;DHT22;4369;47.842;13.096;2022-10-03T00:21:05;12.40;99.90
8664;DHT22;4369;47.842;13.096;2022-10-03T00:23:40;12.30;99.90
8664;DHT22;4369;47.842;13.096;2022-10-03T00:26:18;12.40;99.90
8664;DHT22;4369;47.842;13.096;2022-10-03T00:29:06;12.30;99.90
8664;DHT22;4369;47.842;13.096;2022-10-03T00:31:44;12.20;99.90
8664;DHT22;4369;47.842;13.096;2022-10-03T00:34:23;12.20;99.90
8664;DHT22;4369;47.842;13.096;2022-10-03T00:37:06;12.20;99.90
8664;DHT22;4369;47.842;13.096;2022-10-03T00:39:46;12.20;99.90
8664;DHT22;4369;47.842;13.096;2022-10-03T00:42:40;12.20;99.90
8664;DHT22;4369;47.842;13.096;2022-10-03T00:51:43;12.30;99.90
8664;DHT22;4369;47.842;13.096;2022-10-03T00:54:35;12.30;99.90
8664;DHT22;4369;47.842;13.096;2022-10-03T00:57:29;12.30;99.90
8664;DHT22;4369;47.842;13.096;2022-10-03T01:00:14;12.40;99.90
8664;DHT22;4369;47.842;13.096;2022-10-03T01:03:04;12.40;99.90
8664;DHT22;4369;47.842;13.096;2022-10-03T01:05:42;12.40;99.90
8664;DHT22;4369;47.842;13.096;2022-10-03T01:08:36;12.30;99.90
8664;DHT22;4369;47.842;13.096;2022-10-03T01:11:12;12.10;99.90
8664;DHT22;4369;47.842;13.096;2022-10-03T01:13:50;12.20;99.90
8664;DHT22;4369;47.842;13.096;2022-10-03T01:16:27;12.10;99.90
8664;DHT22;4369;47.842;13.096;2022-10-03T01:19:01;12.20;99.90
8664;DHT22;4369;47.842;13.096;2022-10-03T01:21:38;12.20;99.90
8664;DHT22;4369;47.842;13.096;2022-10-03T01:24:50;12.30;99.90
8664;DHT22;4369;47.842;13.096;2022-10-03T01:27:25;12.30;99.90
8664;DHT22;4369;47.842;13.096;2022-10-03T01:29:57;12.30;99.90
8664;DHT22;4369;47.842;13.096;2022-10-03T01:32:51;12.30;99.90
8664;DHT22;4369;47.842;13.096;2022-10-03T01:35:28;12.30;99.90
8664;DHT22;4369;47.842;13.096;2022-10-03T01:38:06;12.40;99.90
8664;DHT22;4369;47.842;13.096;2022-10-03T01:40:38;12.40;99.90
8664;DHT22;4369;47.842;13.096;2022-10-03T01:43:13;12.40;99.90
8664;DHT22;4369;47.842;13.096;2022-10-03T01:45:52;12.20;99.90
8664;DHT22;4369;47.842;13.096;2022-10-03T01:48:30;12.10;99.90
8664;DHT22;4369;47.842;13.096;2022-10-03T01:51:04;12.20;99.90
8664;DHT22;4369;47.842;13.096;2022-10-03T01:53:46;12.10;99.90
8664;DHT22;4369;47.842;13.096;2022-10-03T01:56:20;12.10;99.90
8664;DHT22;4369;47.842;13.096;2022-10-03T01:58:58;12.10;99.90
8664;DHT22;4369;47.842;13.096;2022-10-03T02:01:33;12.10;99.90
8664;DHT22;4369;47.842;13.096;2022-10-03T02:04:09;12.00;99.90
8664;DHT22;4369;47.842;13.096;2022-10-03T02:06:48;12.00;99.90
8664;DHT22;4369;47.842;13.096;2022-10-03T02:09:26;11.90;99.90
8664;DHT22;4369;47.842;13.096;2022-10-03T02:12:01;11.80;99.90
8664;DHT22;4369;47.842;13.096;2022-10-03T02:14:37;11.70;99.90
8664;DHT22;4369;47.842;13.096;2022-10-03T02:17:11;11.70;99.90
8664;DHT22;4369;47.842;13.096;2022-10-03T02:19:49;11.70;99.90
8664;DHT22;4369;47.842;13.096;2022-10-03T02:22:29;11.60;99.90
8664;DHT22;4369;47.842;13.096;2022-10-03T02:34:17;11.60;99.90
8664;DHT22;4369;47.842;13.096;2022-10-03T02:37:32;11.60;99.90
8664;DHT22;4369;47.842;13.096;2022-10-03T02:43:24;11.60;99.90
8664;DHT22;4369;47.842;13.096;2022-10-03T02:49:30;11.50;99.90
8664;DHT22;4369;47.842;13.096;2022-10-03T02:52:29;11.50;99.90
8664;DHT22;4369;47.842;13.096;2022-10-03T02:55:22;11.40;99.90
8664;DHT22;4369;47.842;13.096;2022-10-03T02:58:09;11.40;99.90
8664;DHT22;4369;47.842;13.096;2022-10-03T03:04:05;11.40;99.90
8664;DHT22;4369;47.842;13.096;2022-10-03T03:06:53;11.50;99.90
8664;DHT22;4369;47.842;13.096;2022-10-03T03:13:09;11.50;99.90
8664;DHT22;4369;47.842;13.096;2022-10-03T03:19:02;11.50;99.90
8664;DHT22;4369;47.842;13.096;2022-10-03T03:21:37;11.50;99.90
8664;DHT22;4369;47.842;13.096;2022-10-03T03:24:25;11.40;99.90
8664;DHT22;4369;47.842;13.096;2022-10-03T03:27:14;11.40;99.90
8664;DHT22;4369;47.842;13.096;2022-10-03T03:29:47;11.40;99.90
8664;DHT22;4369;47.842;13.096;2022-10-03T03:32:26;11.30;99.90
8664;DHT22;4369;47.842;13.096;2022-10-03T03:35:09;11.30;99.90
8664;DHT22;4369;47.842;13.096;2022-10-03T03:37:45;11.40;99.90
8664;DHT22;4369;47.842;13.096;2022-10-03T03:40:28;11.50;99.90
8664;DHT22;4369;47.842;13.096;2022-10-03T03:43:14;11.50;99.90
8664;DHT22;4369;47.842;13.096;2022-10-03T03:45:52;11.40;99.90
8664;DHT22;4369;47.842;13.096;2022-10-03T03:48:38;11.40;99.90
8664;DHT22;4369;47.842;13.096;2022-10-03T03:51:23;11.50;99.90
8664;DHT22;4369;47.842;13.096;2022-10-03T04:00:13;11.40;99.90
8664;DHT22;4369;47.842;13.096;2022-10-03T04:03:03;11.50;99.90
8664;DHT22;4369;47.842;13.096;2022-10-03T04:05:45;11.50;99.90
8664;DHT22;4369;47.842;13.096;2022-10-03T04:08:37;11.40;99.90
8664;DHT22;4369;47.842;13.096;2022-10-03T04:11:18;11.40;99.90
8664;DHT22;4369;47.842;13.096;2022-10-03T04:14:08;11.40;99.90
8664;DHT22;4369;47.842;13.096;2022-10-03T04:16:55;11.40;99.90
8664;DHT22;4369;47.842;13.096;2022-10-03T04:19:53;11.40;99.90
8664;DHT22;4369;47.842;13.096;2022-10-03T04:22:27;11.40;99.90
8664;DHT22;4369;47.842;13.096;2022-10-03T04:25:13;11.40;99.90
8664;DHT22;4369;47.842;13.096;2022-10-03T04:28:00;11.50;99.90
8664;DHT22;4369;47.842;13.096;2022-10-03T04:30:38;11.50;99.90
8664;DHT22;4369;47.842;13.096;2022-10-03T04:33:19;11.50;99.90
8664;DHT22;4369;47.842;13.096;2022-10-03T04:36:26;11.50;99.90
8664;DHT22;4369;47.842;13.096;2022-10-03T04:39:04;11.50;99.90
8664;DHT22;4369;47.842;13.096;2022-10-03T04:41:39;11.50;99.90
8664;DHT22;4369;47.842;13.096;2022-10-03T04:44:15;11.50;99.90
8664;DHT22;4369;47.842;13.096;2022-10-03T04:46:51;11.50;99.90
8664;DHT22;4369;47.842;13.096;2022-10-03T04:49:25;11.50;99.90
8664;DHT22;4369;47.842;13.096;2022-10-03T04:51:59;11.50;99.90
8664;DHT22;4369;47.842;13.096;2022-10-03T04:54:39;11.50;99.90
8664;DHT22;4369;47.842;13.096;2022-10-03T04:57:18;11.60;99.90
8664;DHT22;4369;47.842;13.096;2022-10-03T04:59:49;11.60;99.90
8664;DHT22;4369;47.842;13.096;2022-10-03T05:02:36;11.50;99.90
8664;DHT22;4369;47.842;13.096;2022-10-03T05:05:25;11.40;99.90
8664;DHT22;4369;47.842;13.096;2022-10-03T05:08:00;11.40;99.90
8664;DHT22;4369;47.842;13.096;2022-10-03T05:10:43;11.40;99.90
8664;DHT22;4369;47.842;13.096;2022-10-03T05:13:14;11.50;99.90
8664;DHT22;4369;47.842;13.096;2022-10-03T05:15:53;11.40;99.90
8664;DHT22;4369;47.842;13.096;2022-10-03T05:18:30;11.40;99.90
8664;DHT22;4369;47.842;13.096;2022-10-03T05:21:07;11.40;99.90
8664;DHT22;4369;47.842;13.096;2022-10-03T05:23:49;11.40;99.90
8664;DHT22;4369;47.842;13.096;2022-10-03T05:26:23;11.40;99.90
8664;DHT22;4369;47.842;13.096;2022-10-03T05:28:58;11.30;99.90
8664;DHT22;4369;47.842;13.096;2022-10-03T05:31:37;11.30;99.90
8664;DHT22;4369;47.842;13.096;2022-10-03T05:34:19;11.30;99.90
8664;DHT22;4369;47.842;13.096;2022-10-03T05:37:04;11.20;99.90
8664;DHT22;4369;47.842;13.096;2022-10-03T05:39:39;11.20;99.90
8664;DHT22;4369;47.842;13.096;2022-10-03T05:42:22;11.20;99.90
8664;DHT22;4369;47.842;13.096;2022-10-03T05:45:02;11.20;99.90
8664;DHT22;4369;47.842;13.096;2022-10-03T05:47:31;11.20;99.90
8664;DHT22;4369;47.842;13.096;2022-10-03T05:53:27;11.20;99.90
8664;DHT22;4369;47.842;13.096;2022-10-03T05:56:05;11.20;99.90
8664;DHT22;4369;47.842;13.096;2022-10-03T05:58:46;11.10;99.90
8664;DHT22;4369;47.842;13.096;2022-10-03T06:07:44;11.30;99.90
8664;DHT22;4369;47.842;13.096;2022-10-03T06:10:33;11.30;99.90
8664;DHT22;4369;47.842;13.096;2022-10-03T06:13:11;11.30;99.90
8664;DHT22;4369;47.842;13.096;2022-10-03T06:15:55;11.30;99.90
8664;DHT22;4369;47.842;13.096;2022-10-03T06:19:01;11.30;99.90
8664;DHT22;4369;47.842;13.096;2022-10-03T06:21:56;11.20;99.90
8664;DHT22;4369;47.842;13.096;2022-10-03T06:25:22;11.30;99.90
8664;DHT22;4369;47.842;13.096;2022-10-03T06:28:17;11.30;99.90
8664;DHT22;4369;47.842;13.096;2022-10-03T06:31:25;11.40;99.90
8664;DHT22;4369;47.842;13.096;2022-10-03T06:37:15;11.30;99.90
8664;DHT22;4369;47.842;13.096;2022-10-03T06:46:45;11.30;99.90
8664;DHT22;4369;47.842;13.096;2022-10-03T06:49:41;11.20;99.90
8664;DHT22;4369;47.842;13.096;2022-10-03T06:52:42;11.20;99.90
8664;DHT22;4369;47.842;13.096;2022-10-03T07:10:46;11.40;99.90
8664;DHT22;4369;47.842;13.096;2022-10-03T07:13:38;11.30;99.90
8664;DHT22;4369;47.842;13.096;2022-10-03T07:16:21;11.30;99.90
8664;DHT22;4369;47.842;13.096;2022-10-03T07:19:21;11.30;99.90
8664;DHT22;4369;47.842;13.096;2022-10-03T07:22:26;11.20;99.90
8664;DHT22;4369;47.842;13.096;2022-10-03T07:25:24;11.40;99.90
8664;DHT22;4369;47.842;13.096;2022-10-03T07:28:22;11.50;99.90
8664;DHT22;4369;47.842;13.096;2022-10-03T07:31:00;11.70;99.90
8664;DHT22;4369;47.842;13.096;2022-10-03T07:36:42;11.90;99.90
8664;DHT22;4369;47.842;13.096;2022-10-03T07:40:00;12.00;99.90
8664;DHT22;4369;47.842;13.096;2022-10-03T07:45:44;12.10;99.90
8664;DHT22;4369;47.842;13.096;2022-10-03T07:51:17;12.10;99.90
8664;DHT22;4369;47.842;13.096;2022-10-03T07:54:19;12.10;99.90
8664;DHT22;4369;47.842;13.096;2022-10-03T07:57:09;12.10;99.90
8664;DHT22;4369;47.842;13.096;2022-10-03T08:00:14;12.10;99.90
8664;DHT22;4369;47.842;13.096;2022-10-03T08:06:13;12.10;99.90
8664;DHT22;4369;47.842;13.096;2022-10-03T08:14:35;12.40;99.90
8664;DHT22;4369;47.842;13.096;2022-10-03T08:17:31;12.50;99.90
8664;DHT22;4369;47.842;13.096;2022-10-03T08:20:23;12.60;99.90
8664;DHT22;4369;47.842;13.096;2022-10-03T08:23:03;12.70;99.90
8664;DHT22;4369;47.842;13.096;2022-10-03T08:25:46;12.80;99.90
8664;DHT22;4369;47.842;13.096;2022-10-03T08:31:37;13.10;99.90
8664;DHT22;4369;47.842;13.096;2022-10-03T08:37:21;13.40;99.90
8664;DHT22;4369;47.842;13.096;2022-10-03T08:40:13;13.30;99.90
8664;DHT22;4369;47.842;13.096;2022-10-03T08:45:58;12.90;99.90
8664;DHT22;4369;47.842;13.096;2022-10-03T08:48:45;12.80;99.90
8664;DHT22;4369;47.842;13.096;2022-10-03T08:51:45;12.90;99.90
8664;DHT22;4369;47.842;13.096;2022-10-03T08:54:49;13.00;99.90
8664;DHT22;4369;47.842;13.096;2022-10-03T08:57:36;13.10;99.90
8664;DHT22;4369;47.842;13.096;2022-10-03T09:00:14;13.10;99.90
8664;DHT22;4369;47.842;13.096;2022-10-03T09:06:10;13.30;99.90
8664;DHT22;4369;47.842;13.096;2022-10-03T09:18:40;13.70;99.90
8664;DHT22;4369;47.842;13.096;2022-10-03T09:27:17;14.00;99.90
8664;DHT22;4369;47.842;13.096;2022-10-03T09:30:03;14.10;99.90
8664;DHT22;4369;47.842;13.096;2022-10-03T09:35:29;14.20;99.90
8664;DHT22;4369;47.842;13.096;2022-10-03T09:41:35;14.30;99.90
8664;DHT22;4369;47.842;13.096;2022-10-03T09:59:39;14.60;99.90
8664;DHT22;4369;47.842;13.096;2022-10-03T10:02:45;14.50;99.90
8664;DHT22;4369;47.842;13.096;2022-10-03T10:08:38;14.10;99.90
8664;DHT22;4369;47.842;13.096;2022-10-03T10:11:19;14.10;99.90
8664;DHT22;4369;47.842;13.096;2022-10-03T10:14:22;14.30;99.90
8664;DHT22;4369;47.842;13.096;2022-10-03T10:26:07;15.20;99.90
8664;DHT22;4369;47.842;13.096;2022-10-03T10:29:00;15.00;99.90
8664;DHT22;4369;47.842;13.096;2022-10-03T10:35:13;15.50;99.90
8664;DHT22;4369;47.842;13.096;2022-10-03T10:37:58;15.70;99.90
8664;DHT22;4369;47.842;13.096;2022-10-03T10:41:02;15.50;99.90
8664;DHT22;4369;47.842;13.096;2022-10-03T10:43:55;15.60;99.90
8664;DHT22;4369;47.842;13.096;2022-10-03T10:47:09;15.90;99.90
8664;DHT22;4369;47.842;13.096;2022-10-03T10:56:26;15.30;99.90
8664;DHT22;4369;47.842;13.096;2022-10-03T10:59:37;15.70;99.90
8664;DHT22;4369;47.842;13.096;2022-10-03T11:21:46;16.30;99.90
8664;DHT22;4369;47.842;13.096;2022-10-03T11:24:51;16.70;99.90
8664;DHT22;4369;47.842;13.096;2022-10-03T11:28:12;16.60;99.90
8664;DHT22;4369;47.842;13.096;2022-10-03T11:34:36;15.90;99.90
8664;DHT22;4369;47.842;13.096;2022-10-03T11:37:30;15.50;99.90
8664;DHT22;4369;47.842;13.096;2022-10-03T11:40:08;15.30;99.90
8664;DHT22;4369;47.842;13.096;2022-10-03T11:42:48;15.00;99.90
8664;DHT22;4369;47.842;13.096;2022-10-03T11:45:22;15.00;99.90
8664;DHT22;4369;47.842;13.096;2022-10-03T11:47:56;15.10;99.90
8664;DHT22;4369;47.842;13.096;2022-10-03T11:50:41;15.20;99.90
8664;DHT22;4369;47.842;13.096;2022-10-03T11:53:44;15.60;99.90
8664;DHT22;4369;47.842;13.096;2022-10-03T11:56:36;17.60;99.90
8664;DHT22;4369;47.842;13.096;2022-10-03T12:05:25;16.30;99.90
8664;DHT22;4369;47.842;13.096;2022-10-03T12:08:03;19.30;99.90
8664;DHT22;4369;47.842;13.096;2022-10-03T12:10:59;23.30;99.10
8664;DHT22;4369;47.842;13.096;2022-10-03T12:13:36;23.20;89.30
8664;DHT22;4369;47.842;13.096;2022-10-03T12:16:06;23.40;90.30
8664;DHT22;4369;47.842;13.096;2022-10-03T12:18:51;25.70;84.00
8664;DHT22;4369;47.842;13.096;2022-10-03T12:21:23;24.00;76.30
8664;DHT22;4369;47.842;13.096;2022-10-03T12:24:12;23.80;79.40
8664;DHT22;4369;47.842;13.096;2022-10-03T12:26:52;22.20;80.50
8664;DHT22;4369;47.842;13.096;2022-10-03T12:29:23;21.50;87.20
8664;DHT22;4369;47.842;13.096;2022-10-03T12:32:00;24.00;83.20
8664;DHT22;4369;47.842;13.096;2022-10-03T12:34:38;25.60;77.60
8664;DHT22;4369;47.842;13.096;2022-10-03T12:37:31;24.00;76.30
8664;DHT22;4369;47.842;13.096;2022-10-03T12:40:03;23.20;75.50
8664;DHT22;4369;47.842;13.096;2022-10-03T12:42:34;22.20;80.40
8664;DHT22;4369;47.842;13.096;2022-10-03T12:45:08;21.70;85.10
8664;DHT22;4369;47.842;13.096;2022-10-03T12:47:49;20.60;90.10
8664;DHT22;4369;47.842;13.096;2022-10-03T12:50:38;22.70;88.10
8664;DHT22;4369;47.842;13.096;2022-10-03T12:56:12;29.20;59.60
8664;DHT22;4369;47.842;13.096;2022-10-03T12:58:50;30.30;54.00
8664;DHT22;4369;47.842;13.096;2022-10-03T13:01:26;30.20;54.40
8664;DHT22;4369;47.842;13.096;2022-10-03T13:03:59;28.30;55.60
8664;DHT22;4369;47.842;13.096;2022-10-03T13:06:35;29.60;57.20
8664;DHT22;4369;47.842;13.096;2022-10-03T13:09:17;32.20;49.60
8664;DHT22;4369;47.842;13.096;2022-10-03T13:11:54;31.80;45.40
8664;DHT22;4369;47.842;13.096;2022-10-03T13:14:42;30.40;48.60
8664;DHT22;4369;47.842;13.096;2022-10-03T13:17:31;28.90;50.50
8664;DHT22;4369;47.842;13.096;2022-10-03T13:20:03;26.70;54.50
8664;DHT22;4369;47.842;13.096;2022-10-03T13:22:39;28.90;52.00
8664;DHT22;4369;47.842;13.096;2022-10-03T13:25:12;29.20;50.30
8664;DHT22;4369;47.842;13.096;2022-10-03T13:27:46;27.90;52.60
8664;DHT22;4369;47.842;13.096;2022-10-03T13:30:19;26.10;54.70
8664;DHT22;4369;47.842;13.096;2022-10-03T13:32:52;24.70;60.40
8664;DHT22;4369;47.842;13.096;2022-10-03T13:35:31;23.30;63.30
8664;DHT22;4369;47.842;13.096;2022-10-03T13:38:50;23.80;69.00
8664;DHT22;4369;47.842;13.096;2022-10-03T13:41:34;26.50;59.40
8664;DHT22;4369;47.842;13.096;2022-10-03T13:44:12;30.00;55.20
8664;DHT22;4369;47.842;13.096;2022-10-03T13:46:44;31.40;48.20
8664;DHT22;4369;47.842;13.096;2022-10-03T13:49:23;34.20;45.50
8664;DHT22;4369;47.842;13.096;2022-10-03T13:51:58;34.20;41.80
8664;DHT22;4369;47.842;13.096;2022-10-03T13:55:00;33.00;43.80
8664;DHT22;4369;47.842;13.096;2022-10-03T13:57:31;33.40;43.70
8664;DHT22;4369;47.842;13.096;2022-10-03T14:00:02;31.00;44.40
8664;DHT22;4369;47.842;13.096;2022-10-03T14:02:50;28.90;47.20
8664;DHT22;4369;47.842;13.096;2022-10-03T14:05:43;26.90;50.10
8664;DHT22;4369;47.842;13.096;2022-10-03T14:08:17;24.60;52.20
8664;DHT22;4369;47.842;13.096;2022-10-03T14:11:13;23.90;54.10
8664;DHT22;4369;47.842;13.096;2022-10-03T14:13:53;24.10;56.10
8664;DHT22;4369;47.842;13.096;2022-10-03T14:16:27;23.50;58.00
8664;DHT22;4369;47.842;13.096;2022-10-03T14:19:10;22.90;57.00
8664;DHT22;4369;47.842;13.096;2022-10-03T14:22:19;22.50;56.80
8664;DHT22;4369;47.842;13.096;2022-10-03T14:25:05;22.20;58.70
8664;DHT22;4369;47.842;13.096;2022-10-03T14:27:44;22.00;57.80
8664;DHT22;4369;47.842;13.096;2022-10-03T14:30:14;23.00;56.80
8664;DHT22;4369;47.842;13.096;2022-10-03T14:32:53;22.90;55.80
8664;DHT22;4369;47.842;13.096;2022-10-03T14:35:35;23.00;57.30
8664;DHT22;4369;47.842;13.096;2022-10-03T14:38:14;22.60;56.90
8664;DHT22;4369;47.842;13.096;2022-10-03T14:40:47;21.70;59.70
8664;DHT22;4369;47.842;13.096;2022-10-03T14:43:33;20.90;63.40
8664;DHT22;4369;47.842;13.096;2022-10-03T14:46:04;20.30;65.40
8664;DHT22;4369;47.842;13.096;2022-10-03T14:48:36;19.70;67.50
8664;DHT22;4369;47.842;13.096;2022-10-03T14:51:14;19.30;71.70
8664;DHT22;4369;47.842;13.096;2022-10-03T14:53:46;19.00;75.30
8664;DHT22;4369;47.842;13.096;2022-10-03T14:58:47;18.00;86.60
8664;DHT22;4369;47.842;13.096;2022-10-03T15:01:17;17.80;84.50
8664;DHT22;4369;47.842;13.096;2022-10-03T15:03:54;17.80;85.20
8664;DHT22;4369;47.842;13.096;2022-10-03T15:11:48;17.30;90.80
8664;DHT22;4369;47.842;13.096;2022-10-03T15:14:17;17.20;94.00
8664;DHT22;4369;47.842;13.096;2022-10-03T15:16:48;17.30;95.20
8664;DHT22;4369;47.842;13.096;2022-10-03T15:19:19;17.50;94.80
8664;DHT22;4369;47.842;13.096;2022-10-03T15:21:51;17.60;95.90
8664;DHT22;4369;47.842;13.096;2022-10-03T15:24:21;17.70;98.80
8664;DHT22;4369;47.842;13.096;2022-10-03T15:26:56;17.60;99.90
8664;DHT22;4369;47.842;13.096;2022-10-03T15:29:24;17.50;99.90
8664;DHT22;4369;47.842;13.096;2022-10-03T15:37:15;17.30;99.90
8664;DHT22;4369;47.842;13.096;2022-10-03T15:44:50;17.10;99.90
8664;DHT22;4369;47.842;13.096;2022-10-03T15:47:19;17.00;99.90
8664;DHT22;4369;47.842;13.096;2022-10-03T15:49:51;16.90;99.90
8664;DHT22;4369;47.842;13.096;2022-10-03T15:52:20;17.00;99.90
8664;DHT22;4369;47.842;13.096;2022-10-03T15:54:52;17.00;99.90
8664;DHT22;4369;47.842;13.096;2022-10-03T15:57:25;16.70;99.90
8664;DHT22;4369;47.842;13.096;2022-10-03T15:59:57;16.60;99.90
8664;DHT22;4369;47.842;13.096;2022-10-03T16:02:29;16.40;99.90
8664;DHT22;4369;47.842;13.096;2022-10-03T16:05:04;16.20;99.90
8664;DHT22;4369;47.842;13.096;2022-10-03T16:07:56;16.20;99.90
8664;DHT22;4369;47.842;13.096;2022-10-03T16:10:27;16.00;99.90
8664;DHT22;4369;47.842;13.096;2022-10-03T16:13:03;15.90;99.90
8664;DHT22;4369;47.842;13.096;2022-10-03T16:15:52;15.70;99.90
8664;DHT22;4369;47.842;13.096;2022-10-03T16:18:50;15.60;99.90
8664;DHT22;4369;47.842;13.096;2022-10-03T16:21:29;15.50;99.90
8664;DHT22;4369;47.842;13.096;2022-10-03T16:24:00;15.20;99.90
8664;DHT22;4369;47.842;13.096;2022-10-03T16:26:30;14.90;99.90
8664;DHT22;4369;47.842;13.096;2022-10-03T16:29:05;14.80;99.90
8664;DHT22;4369;47.842;13.096;2022-10-03T16:31:39;14.70;99.90
8664;DHT22;4369;47.842;13.096;2022-10-03T16:34:13;14.60;99.90
8664;DHT22;4369;47.842;13.096;2022-10-03T16:36:44;14.50;99.90
8664;DHT22;4369;47.842;13.096;2022-10-03T16:39:19;14.40;99.90
8664;DHT22;4369;47.842;13.096;2022-10-03T16:41:51;14.40;99.90
8664;DHT22;4369;47.842;13.096;2022-10-03T16:44:23;14.30;99.90
8664;DHT22;4369;47.842;13.096;2022-10-03T16:46:54;14.10;99.90
8664;DHT22;4369;47.842;13.096;2022-10-03T16:49:37;14.10;99.90
8664;DHT22;4369;47.842;13.096;2022-10-03T16:52:30;13.90;99.90
8664;DHT22;4369;47.842;13.096;2022-10-03T16:55:02;13.90;99.90
8664;DHT22;4369;47.842;13.096;2022-10-03T16:57:39;13.80;99.90
8664;DHT22;4369;47.842;13.096;2022-10-03T17:00:13;13.70;99.90
8664;DHT22;4369;47.842;13.096;2022-10-03T17:02:42;13.60;99.90
8664;DHT22;4369;47.842;13.096;2022-10-03T17:07:58;13.40;99.90
8664;DHT22;4369;47.842;13.096;2022-10-03T17:10:32;13.40;99.90
8664;DHT22;4369;47.842;13.096;2022-10-03T17:13:02;13.20;99.90
8664;DHT22;4369;47.842;13.096;2022-10-03T17:15:33;13.20;99.90
8664;DHT22;4369;47.842;13.096;2022-10-03T17:18:14;13.10;99.90
8664;DHT22;4369;47.842;13.096;2022-10-03T17:20:44;13.00;99.90
8664;DHT22;4369;47.842;13.096;2022-10-03T17:23:21;13.00;99.90
8664;DHT22;4369;47.842;13.096;2022-10-03T17:25:57;12.80;99.90
8664;DHT22;4369;47.842;13.096;2022-10-03T17:28:39;12.80;99.90
8664;DHT22;4369;47.842;13.096;2022-10-03T17:31:22;12.80;99.90
8664;DHT22;4369;47.842;13.096;2022-10-03T17:33:55;12.70;99.90
8664;DHT22;4369;47.842;13.096;2022-10-03T17:36:52;12.60;99.90
8664;DHT22;4369;47.842;13.096;2022-10-03T17:39:42;12.60;99.90
8664;DHT22;4369;47.842;13.096;2022-10-03T17:42:23;12.50;99.90
8664;DHT22;4369;47.842;13.096;2022-10-03T17:44:58;12.50;99.90
8664;DHT22;4369;47.842;13.096;2022-10-03T17:47:32;12.40;99.90
8664;DHT22;4369;47.842;13.096;2022-10-03T17:50:06;12.40;99.90
8664;DHT22;4369;47.842;13.096;2022-10-03T17:52:41;12.40;99.90
8664;DHT22;4369;47.842;13.096;2022-10-03T17:55:16;12.20;99.90
8664;DHT22;4369;47.842;13.096;2022-10-03T17:57:49;12.10;99.90
8664;DHT22;4369;47.842;13.096;2022-10-03T18:00:20;12.20;99.90
8664;DHT22;4369;47.842;13.096;2022-10-03T18:02:54;12.10;99.90
8664;DHT22;4369;47.842;13.096;2022-10-03T18:05:27;12.10;99.90
8664;DHT22;4369;47.842;13.096;2022-10-03T18:07:55;12.20;99.90
8664;DHT22;4369;47.842;13.096;2022-10-03T18:10:30;12.30;99.90
8664;DHT22;4369;47.842;13.096;2022-10-03T18:13:01;12.20;99.90
8664;DHT22;4369;47.842;13.096;2022-10-03T18:16:01;12.20;99.90
8664;DHT22;4369;47.842;13.096;2022-10-03T18:19:08;12.10;99.90
8664;DHT22;4369;47.842;13.096;2022-10-03T18:22:10;12.00;99.90
8664;DHT22;4369;47.842;13.096;2022-10-03T18:24:49;12.00;99.90
8664;DHT22;4369;47.842;13.096;2022-10-03T18:27:50;12.00;99.90
8664;DHT22;4369;47.842;13.096;2022-10-03T18:30:24;12.00;99.90
8664;DHT22;4369;47.842;13.096;2022-10-03T18:32:56;11.90;99.90
8664;DHT22;4369;47.842;13.096;2022-10-03T18:35:27;11.80;99.90
8664;DHT22;4369;47.842;13.096;2022-10-03T18:38:02;11.80;99.90
8664;DHT22;4369;47.842;13.096;2022-10-03T18:40:33;11.80;99.90
8664;DHT22;4369;47.842;13.096;2022-10-03T18:43:04;11.80;99.90
8664;DHT22;4369;47.842;13.096;2022-10-03T18:45:36;11.80;99.90
8664;DHT22;4369;47.842;13.096;2022-10-03T18:48:09;11.80;99.90
8664;DHT22;4369;47.842;13.096;2022-10-03T18:50:50;11.80;99.90
8664;DHT22;4369;47.842;13.096;2022-10-03T18:53:27;11.80;99.90
8664;DHT22;4369;47.842;13.096;2022-10-03T18:55:59;11.80;99.90
8664;DHT22;4369;47.842;13.096;2022-10-03T18:58:32;11.90;99.90
8664;DHT22;4369;47.842;13.096;2022-10-03T19:01:03;11.90;99.90
8664;DHT22;4369;47.842;13.096;2022-10-03T19:03:34;11.90;99.90
8664;DHT22;4369;47.842;13.096;2022-10-03T19:06:05;11.90;99.90
8664;DHT22;4369;47.842;13.096;2022-10-03T19:08:37;11.90;99.90
8664;DHT22;4369;47.842;13.096;2022-10-03T19:11:13;11.90;99.90
8664;DHT22;4369;47.842;13.096;2022-10-03T19:13:44;11.90;99.90
8664;DHT22;4369;47.842;13.096;2022-10-03T19:16:32;11.90;99.90
8664;DHT22;4369;47.842;13.096;2022-10-03T19:19:08;11.90;99.90
8664;DHT22;4369;47.842;13.096;2022-10-03T19:21:38;11.90;99.90
8664;DHT22;4369;47.842;13.096;2022-10-03T19:24:12;11.90;99.90
8664;DHT22;4369;47.842;13.096;2022-10-03T19:26:44;11.90;99.90
8664;DHT22;4369;47.842;13.096;2022-10-03T19:29:14;11.80;99.90
8664;DHT22;4369;47.842;13.096;2022-10-03T19:31:51;11.80;99.90
8664;DHT22;4369;47.842;13.096;2022-10-03T19:34:26;11.80;99.90
8664;DHT22;4369;47.842;13.096;2022-10-03T19:36:54;11.70;99.90
8664;DHT22;4369;47.842;13.096;2022-10-03T19:39:25;11.70;99.90
8664;DHT22;4369;47.842;13.096;2022-10-03T19:41:55;11.60;99.90
8664;DHT22;4369;47.842;13.096;2022-10-03T19:44:24;11.60;99.90
8664;DHT22;4369;47.842;13.096;2022-10-03T19:47:04;11.60;99.90
8664;DHT22;4369;47.842;13.096;2022-10-03T19:49:46;11.60;99.90
8664;DHT22;4369;47.842;13.096;2022-10-03T19:52:27;11.60;99.90
8664;DHT22;4369;47.842;13.096;2022-10-03T19:55:03;11.50;99.90
8664;DHT22;4369;47.842;13.096;2022-10-03T19:57:44;11.50;99.90
8664;DHT22;4369;47.842;13.096;2022-10-03T20:00:25;11.50;99.90
8664;DHT22;4369;47.842;13.096;2022-10-03T20:03:04;11.40;99.90
8664;DHT22;4369;47.842;13.096;2022-10-03T20:05:36;11.40;99.90
8664;DHT22;4369;47.842;13.096;2022-10-03T20:08:23;11.50;99.90
8664;DHT22;4369;47.842;13.096;2022-10-03T20:11:14;11.40;99.90
8664;DHT22;4369;47.842;13.096;2022-10-03T20:13:43;11.50;99.90
8664;DHT22;4369;47.842;13.096;2022-10-03T20:16:14;11.50;99.90
8664;DHT22;4369;47.842;13.096;2022-10-03T20:18:42;11.50;99.90
8664;DHT22;4369;47.842;13.096;2022-10-03T20:21:11;11.50;99.90
8664;DHT22;4369;47.842;13.096;2022-10-03T20:23:42;11.50;99.90
8664;DHT22;4369;47.842;13.096;2022-10-03T20:26:19;11.50;99.90
8664;DHT22;4369;47.842;13.096;2022-10-03T20:29:02;11.40;99.90
8664;DHT22;4369;47.842;13.096;2022-10-03T20:31:32;11.30;99.90
8664;DHT22;4369;47.842;13.096;2022-10-03T20:34:02;11.40;99.90
8664;DHT22;4369;47.842;13.096;2022-10-03T20:36:31;11.40;99.90
8664;DHT22;4369;47.842;13.096;2022-10-03T20:39:05;11.30;99.90
8664;DHT22;4369;47.842;13.096;2022-10-03T20:41:43;11.30;99.90
8664;DHT22;4369;47.842;13.096;2022-10-03T20:44:16;11.30;99.90
8664;DHT22;4369;47.842;13.096;2022-10-03T20:46:48;11.30;99.90
8664;DHT22;4369;47.842;13.096;2022-10-03T20:49:25;11.30;99.90